createdAt,value
2022-08-16T00:05:26.267Z,17.33
2022-08-16T00:15:50.977Z,17.10
2022-08-16T00:26:36.229Z,16.80
2022-08-16T00:35:27.833Z,16.40
2022-08-16T00:45:26.965Z,16.41
2022-08-16T00:55:27.372Z,16.56
2022-08-16T01:05:28.301Z,16.31
2022-08-16T01:15:27.428Z,16.63
2022-08-16T01:25:34.044Z,17.59
2022-08-16T01:35:28.706Z,18.25
2022-08-16T01:45:40.809Z,18.06
2022-08-16T01:55:35.741Z,18.49
2022-08-16T02:05:30.352Z,18.15
2022-08-16T02:15:28.374Z,17.69
2022-08-16T02:25:51.967Z,16.22
2022-08-16T02:35:29.732Z,15.85
2022-08-16T02:45:28.898Z,15.63
2022-08-16T02:55:40.934Z,15.41
2022-08-16T03:05:30.902Z,15.28
2022-08-16T03:15:29.632Z,15.26
2022-08-16T03:25:40.659Z,15.30
2022-08-16T03:35:33.062Z,15.02
2022-08-16T03:45:30.544Z,15.08
2022-08-16T03:55:37.104Z,15.28
2022-08-16T04:05:31.337Z,15.41
2022-08-16T04:15:30.485Z,15.33
2022-08-16T04:25:30.702Z,15.28
2022-08-16T04:35:34.086Z,15.56
2022-08-16T04:45:35.944Z,15.63
2022-08-16T04:55:38.330Z,15.64
2022-08-16T05:05:36.646Z,15.67
2022-08-16T05:15:33.057Z,15.88
2022-08-16T05:25:41.051Z,16.27
2022-08-16T05:35:32.829Z,16.73
2022-08-16T05:45:32.058Z,16.70
2022-08-16T05:55:32.092Z,16.73
2022-08-16T06:05:32.219Z,16.85
2022-08-16T06:15:32.344Z,17.22
2022-08-16T06:25:36.353Z,17.89
2022-08-16T06:35:40.356Z,18.28
2022-08-16T06:45:33.879Z,18.72
2022-08-16T06:55:34.546Z,19.05
2022-08-16T07:05:41.581Z,19.50
2022-08-16T07:15:34.459Z,19.98
2022-08-16T07:25:33.537Z,20.43
2022-08-16T07:35:34.711Z,20.83
2022-08-16T07:45:33.900Z,21.26
2022-08-16T07:55:45.919Z,21.71
2022-08-16T08:05:36.764Z,22.09
2022-08-16T08:15:34.557Z,22.31
2022-08-16T08:25:54.324Z,22.43
2022-08-16T08:35:35.727Z,22.92
2022-08-16T08:45:47.951Z,23.17
2022-08-16T08:55:36.117Z,23.49
2022-08-16T09:05:35.549Z,23.86
2022-08-16T09:15:35.450Z,25.91
2022-08-16T09:25:35.616Z,27.43
2022-08-16T09:35:38.632Z,28.51
2022-08-16T09:45:35.945Z,28.43
2022-08-16T09:55:44.419Z,28.68
2022-08-16T10:05:37.212Z,29.10
2022-08-16T10:15:36.497Z,28.65
2022-08-16T10:27:17.813Z,29.26
2022-08-16T10:35:37.706Z,28.75
2022-08-16T10:45:38.267Z,31.09
2022-08-16T10:55:43.712Z,28.59
2022-08-16T11:15:38.477Z,28.78
2022-08-16T11:36:22.453Z,27.66
2022-08-16T11:45:39.009Z,28.23
2022-08-16T11:55:38.479Z,27.50
2022-08-16T12:05:38.350Z,28.73
2022-08-16T12:15:38.545Z,28.60
2022-08-16T12:25:38.670Z,29.49
2022-08-16T12:35:38.796Z,29.23
2022-08-16T12:45:38.965Z,30.37
2022-08-16T12:55:41.955Z,29.53
2022-08-16T13:05:39.278Z,29.86
2022-08-16T13:15:51.800Z,31.39
2022-08-16T13:25:40.613Z,31.24
2022-08-16T13:35:43.136Z,29.87
2022-08-16T13:45:44.961Z,30.52
2022-08-16T13:55:41.126Z,30.84
2022-08-16T14:05:40.309Z,30.72
2022-08-16T14:15:41.876Z,31.18
2022-08-16T14:25:40.615Z,32.30
2022-08-16T14:35:49.187Z,31.42
2022-08-16T14:45:42.039Z,33.20
2022-08-16T14:55:41.522Z,32.64
2022-08-16T15:05:41.372Z,31.43
2022-08-16T15:15:41.567Z,32.85
2022-08-16T15:25:42.055Z,32.51
2022-08-16T15:35:41.898Z,32.70
2022-08-16T15:45:44.697Z,31.92
2022-08-16T15:55:42.577Z,32.15
2022-08-16T16:05:42.543Z,31.93
2022-08-16T16:15:42.613Z,32.48
2022-08-16T16:25:43.932Z,32.43
2022-08-16T16:35:46.880Z,32.66
2022-08-16T16:45:43.078Z,32.89
2022-08-16T16:55:43.319Z,31.15
2022-08-16T17:05:43.377Z,29.99
2022-08-16T17:15:44.806Z,30.26
2022-08-16T17:25:43.844Z,29.50
2022-08-16T17:35:44.914Z,29.53
2022-08-16T17:45:45.322Z,28.70
2022-08-16T17:55:44.270Z,28.31
2022-08-16T18:05:44.439Z,27.11
2022-08-16T18:15:44.639Z,26.02
2022-08-16T18:25:44.812Z,25.27
2022-08-16T18:35:45.029Z,24.60
2022-08-16T18:45:45.222Z,24.05
2022-08-16T18:55:45.641Z,23.80
2022-08-16T19:05:45.601Z,23.38
2022-08-16T19:15:45.984Z,22.93
2022-08-16T19:25:48.714Z,22.41
2022-08-16T19:35:46.131Z,22.02
2022-08-16T19:45:46.555Z,21.67
2022-08-16T19:55:47.339Z,21.38
2022-08-16T20:05:46.760Z,21.13
2022-08-16T20:15:46.718Z,20.96
2022-08-16T20:25:49.636Z,21.01
2022-08-16T20:35:47.290Z,20.58
2022-08-16T20:45:47.252Z,20.31
2022-08-16T20:55:47.571Z,20.15
2022-08-16T21:05:47.575Z,19.97
2022-08-16T21:15:47.746Z,19.86
2022-08-16T21:25:59.103Z,19.97
2022-08-16T21:35:49.091Z,20.89
2022-08-16T21:45:48.412Z,21.41
2022-08-16T21:55:49.467Z,21.85
2022-08-16T22:06:05.856Z,22.41
2022-08-16T22:15:49.845Z,22.62
2022-08-16T22:25:49.000Z,22.38
2022-08-16T22:35:49.164Z,21.88
2022-08-16T22:45:49.361Z,21.35
2022-08-16T22:55:49.520Z,21.05
2022-08-16T23:05:50.331Z,20.68
2022-08-16T23:15:51.900Z,20.39
2022-08-16T23:25:50.090Z,20.08
2022-08-16T23:35:50.247Z,20.05
2022-08-16T23:45:50.402Z,20.28
2022-08-16T23:55:50.566Z,19.86
